sensor_id;sensor_type;location;lat;lon;timestamp;temperature;humidity
53926;DHT22;39836;52.754;6.866;2022-10-16T00:01:14;12.90;79.40
53926;DHT22;39836;52.754;6.866;2022-10-16T00:03:42;12.90;79.30
53926;DHT22;39836;52.754;6.866;2022-10-16T00:06:08;12.90;79.30
53926;DHT22;39836;52.754;6.866;2022-10-16T00:08:36;12.90;79.30
53926;DHT22;39836;52.754;6.866;2022-10-16T00:11:14;12.90;79.30
53926;DHT22;39836;52.754;6.866;2022-10-16T00:13:41;12.90;79.30
53926;DHT22;39836;52.754;6.866;2022-10-16T00:16:09;12.90;79.30
53926;DHT22;39836;52.754;6.866;2022-10-16T00:18:35;12.90;79.30
53926;DHT22;39836;52.754;6.866;2022-10-16T00:21:08;12.90;79.30
53926;DHT22;39836;52.754;6.866;2022-10-16T00:23:34;12.90;79.30
53926;DHT22;39836;52.754;6.866;2022-10-16T00:26:03;12.90;79.30
53926;DHT22;39836;52.754;6.866;2022-10-16T00:28:29;12.90;79.30
53926;DHT22;39836;52.754;6.866;2022-10-16T00:30:55;12.80;79.30
53926;DHT22;39836;52.754;6.866;2022-10-16T00:33:21;12.90;79.40
53926;DHT22;39836;52.754;6.866;2022-10-16T00:35:47;12.90;79.40
53926;DHT22;39836;52.754;6.866;2022-10-16T00:38:13;12.90;79.30
53926;DHT22;39836;52.754;6.866;2022-10-16T00:40:39;12.90;79.30
53926;DHT22;39836;52.754;6.866;2022-10-16T00:45:56;12.90;79.20
53926;DHT22;39836;52.754;6.866;2022-10-16T00:48:22;12.90;79.20
53926;DHT22;39836;52.754;6.866;2022-10-16T00:50:47;12.90;79.10
53926;DHT22;39836;52.754;6.866;2022-10-16T00:53:14;12.90;79.20
53926;DHT22;39836;52.754;6.866;2022-10-16T00:55:40;12.90;79.10
53926;DHT22;39836;52.754;6.866;2022-10-16T00:58:05;12.90;79.20
53926;DHT22;39836;52.754;6.866;2022-10-16T01:00:31;12.90;79.20
53926;DHT22;39836;52.754;6.866;2022-10-16T01:03:02;12.90;79.20
53926;DHT22;39836;52.754;6.866;2022-10-16T01:05:39;12.90;79.20
53926;DHT22;39836;52.754;6.866;2022-10-16T01:13:11;12.90;79.10
53926;DHT22;39836;52.754;6.866;2022-10-16T01:15:47;12.90;79.20
53926;DHT22;39836;52.754;6.866;2022-10-16T01:18:45;12.90;79.20
53926;DHT22;39836;52.754;6.866;2022-10-16T01:21:29;12.80;79.10
53926;DHT22;39836;52.754;6.866;2022-10-16T01:32:36;12.80;79.20
53926;DHT22;39836;52.754;6.866;2022-10-16T01:35:20;12.80;79.20
53926;DHT22;39836;52.754;6.866;2022-10-16T01:37:56;12.80;79.10
53926;DHT22;39836;52.754;6.866;2022-10-16T01:40:27;12.80;79.10
53926;DHT22;39836;52.754;6.866;2022-10-16T01:42:58;12.80;79.10
53926;DHT22;39836;52.754;6.866;2022-10-16T01:45:25;12.80;79.10
53926;DHT22;39836;52.754;6.866;2022-10-16T01:47:53;12.80;79.20
53926;DHT22;39836;52.754;6.866;2022-10-16T01:50:20;12.70;79.10
53926;DHT22;39836;52.754;6.866;2022-10-16T01:52:49;12.70;79.20
53926;DHT22;39836;52.754;6.866;2022-10-16T01:55:22;12.60;79.10
53926;DHT22;39836;52.754;6.866;2022-10-16T01:57:50;12.60;79.20
53926;DHT22;39836;52.754;6.866;2022-10-16T02:00:19;12.60;79.20
53926;DHT22;39836;52.754;6.866;2022-10-16T02:02:48;12.60;79.20
53926;DHT22;39836;52.754;6.866;2022-10-16T02:05:29;12.60;79.30
53926;DHT22;39836;52.754;6.866;2022-10-16T02:07:56;12.70;79.20
53926;DHT22;39836;52.754;6.866;2022-10-16T02:10:23;12.70;79.20
53926;DHT22;39836;52.754;6.866;2022-10-16T02:12:57;12.70;79.20
53926;DHT22;39836;52.754;6.866;2022-10-16T02:15:24;12.70;79.20
53926;DHT22;39836;52.754;6.866;2022-10-16T02:17:49;12.70;79.20
53926;DHT22;39836;52.754;6.866;2022-10-16T02:20:15;12.70;79.20
53926;DHT22;39836;52.754;6.866;2022-10-16T02:22:46;12.70;79.20
53926;DHT22;39836;52.754;6.866;2022-10-16T02:25:27;12.60;79.20
53926;DHT22;39836;52.754;6.866;2022-10-16T02:30:38;12.60;79.20
53926;DHT22;39836;52.754;6.866;2022-10-16T02:33:08;12.60;79.20
53926;DHT22;39836;52.754;6.866;2022-10-16T02:35:35;12.60;79.30
53926;DHT22;39836;52.754;6.866;2022-10-16T02:38:02;12.60;79.30
53926;DHT22;39836;52.754;6.866;2022-10-16T02:40:28;12.60;79.30
53926;DHT22;39836;52.754;6.866;2022-10-16T02:42:54;12.60;79.40
53926;DHT22;39836;52.754;6.866;2022-10-16T02:45:21;12.60;79.30
53926;DHT22;39836;52.754;6.866;2022-10-16T02:47:47;12.70;79.30
53926;DHT22;39836;52.754;6.866;2022-10-16T02:50:13;12.70;79.40
53926;DHT22;39836;52.754;6.866;2022-10-16T02:52:39;12.70;79.40
53926;DHT22;39836;52.754;6.866;2022-10-16T02:55:05;12.70;79.40
53926;DHT22;39836;52.754;6.866;2022-10-16T02:57:31;12.70;79.40
53926;DHT22;39836;52.754;6.866;2022-10-16T02:59:57;12.70;79.40
53926;DHT22;39836;52.754;6.866;2022-10-16T03:02:23;12.80;79.50
53926;DHT22;39836;52.754;6.866;2022-10-16T03:04:49;12.80;79.40
53926;DHT22;39836;52.754;6.866;2022-10-16T03:07:14;12.90;79.50
53926;DHT22;39836;52.754;6.866;2022-10-16T03:09:40;12.90;79.40
53926;DHT22;39836;52.754;6.866;2022-10-16T03:12:05;13.00;79.40
53926;DHT22;39836;52.754;6.866;2022-10-16T03:14:32;13.00;79.40
53926;DHT22;39836;52.754;6.866;2022-10-16T03:16:57;13.10;79.40
53926;DHT22;39836;52.754;6.866;2022-10-16T03:19:23;13.10;79.30
53926;DHT22;39836;52.754;6.866;2022-10-16T03:21:49;13.20;79.40
53926;DHT22;39836;52.754;6.866;2022-10-16T03:24:15;13.10;79.30
53926;DHT22;39836;52.754;6.866;2022-10-16T03:26:41;13.20;79.40
53926;DHT22;39836;52.754;6.866;2022-10-16T03:29:07;13.20;79.40
53926;DHT22;39836;52.754;6.866;2022-10-16T03:31:33;13.20;79.40
53926;DHT22;39836;52.754;6.866;2022-10-16T03:33:58;13.20;79.40
53926;DHT22;39836;52.754;6.866;2022-10-16T03:36:24;13.20;79.40
53926;DHT22;39836;52.754;6.866;2022-10-16T03:38:50;13.20;79.40
53926;DHT22;39836;52.754;6.866;2022-10-16T03:41:16;13.20;79.40
53926;DHT22;39836;52.754;6.866;2022-10-16T03:43:41;13.30;79.50
53926;DHT22;39836;52.754;6.866;2022-10-16T03:46:07;13.30;79.60
53926;DHT22;39836;52.754;6.866;2022-10-16T03:48:33;13.30;79.50
53926;DHT22;39836;52.754;6.866;2022-10-16T03:50:59;13.20;79.50
53926;DHT22;39836;52.754;6.866;2022-10-16T03:53:25;13.30;79.60
53926;DHT22;39836;52.754;6.866;2022-10-16T03:55:50;13.20;79.60
53926;DHT22;39836;52.754;6.866;2022-10-16T03:58:17;13.20;79.60
53926;DHT22;39836;52.754;6.866;2022-10-16T04:00:43;13.20;79.70
53926;DHT22;39836;52.754;6.866;2022-10-16T04:03:09;13.10;79.70
53926;DHT22;39836;52.754;6.866;2022-10-16T04:05:35;13.10;79.80
53926;DHT22;39836;52.754;6.866;2022-10-16T04:08:01;13.10;79.80
53926;DHT22;39836;52.754;6.866;2022-10-16T04:10:27;13.10;79.80
53926;DHT22;39836;52.754;6.866;2022-10-16T04:12:52;13.10;79.80
53926;DHT22;39836;52.754;6.866;2022-10-16T04:15:24;13.10;79.80
53926;DHT22;39836;52.754;6.866;2022-10-16T04:17:51;13.10;79.90
53926;DHT22;39836;52.754;6.866;2022-10-16T04:20:17;13.10;79.80
53926;DHT22;39836;52.754;6.866;2022-10-16T04:22:43;13.10;79.90
53926;DHT22;39836;52.754;6.866;2022-10-16T04:25:09;13.10;79.90
53926;DHT22;39836;52.754;6.866;2022-10-16T04:27:35;13.00;79.90
53926;DHT22;39836;52.754;6.866;2022-10-16T04:30:00;13.00;79.90
53926;DHT22;39836;52.754;6.866;2022-10-16T04:32:27;12.90;79.90
53926;DHT22;39836;52.754;6.866;2022-10-16T04:34:52;12.90;80.00
53926;DHT22;39836;52.754;6.866;2022-10-16T04:37:18;12.90;80.00
53926;DHT22;39836;52.754;6.866;2022-10-16T04:39:44;12.90;80.10
53926;DHT22;39836;52.754;6.866;2022-10-16T04:42:10;12.90;80.10
53926;DHT22;39836;52.754;6.866;2022-10-16T04:44:36;12.90;80.10
53926;DHT22;39836;52.754;6.866;2022-10-16T04:47:02;12.80;80.10
53926;DHT22;39836;52.754;6.866;2022-10-16T04:49:27;12.80;80.20
53926;DHT22;39836;52.754;6.866;2022-10-16T04:51:53;12.80;80.20
53926;DHT22;39836;52.754;6.866;2022-10-16T04:54:19;12.80;80.30
53926;DHT22;39836;52.754;6.866;2022-10-16T04:56:44;12.80;80.30
53926;DHT22;39836;52.754;6.866;2022-10-16T04:59:14;12.80;80.30
53926;DHT22;39836;52.754;6.866;2022-10-16T05:01:40;12.80;80.30
53926;DHT22;39836;52.754;6.866;2022-10-16T05:04:06;12.80;80.40
53926;DHT22;39836;52.754;6.866;2022-10-16T05:06:31;12.90;80.40
53926;DHT22;39836;52.754;6.866;2022-10-16T05:08:57;12.90;80.40
53926;DHT22;39836;52.754;6.866;2022-10-16T05:11:23;12.80;80.40
53926;DHT22;39836;52.754;6.866;2022-10-16T05:13:48;12.80;80.40
53926;DHT22;39836;52.754;6.866;2022-10-16T05:16:14;12.80;80.40
53926;DHT22;39836;52.754;6.866;2022-10-16T05:18:40;12.70;80.40
53926;DHT22;39836;52.754;6.866;2022-10-16T05:21:05;12.70;80.50
53926;DHT22;39836;52.754;6.866;2022-10-16T05:23:31;12.70;80.40
53926;DHT22;39836;52.754;6.866;2022-10-16T05:25:58;12.70;80.40
53926;DHT22;39836;52.754;6.866;2022-10-16T05:28:26;12.70;80.40
53926;DHT22;39836;52.754;6.866;2022-10-16T05:30:52;12.70;80.40
53926;DHT22;39836;52.754;6.866;2022-10-16T05:33:20;12.70;80.40
53926;DHT22;39836;52.754;6.866;2022-10-16T05:35:46;12.70;80.40
53926;DHT22;39836;52.754;6.866;2022-10-16T05:38:12;12.60;80.40
53926;DHT22;39836;52.754;6.866;2022-10-16T05:40:37;12.60;80.40
53926;DHT22;39836;52.754;6.866;2022-10-16T05:43:03;12.60;80.50
53926;DHT22;39836;52.754;6.866;2022-10-16T05:45:29;12.60;80.50
53926;DHT22;39836;52.754;6.866;2022-10-16T05:47:55;12.60;80.50
53926;DHT22;39836;52.754;6.866;2022-10-16T05:50:20;12.60;80.50
53926;DHT22;39836;52.754;6.866;2022-10-16T05:52:46;12.60;80.50
53926;DHT22;39836;52.754;6.866;2022-10-16T05:55:12;12.70;80.50
53926;DHT22;39836;52.754;6.866;2022-10-16T05:57:37;12.70;80.50
53926;DHT22;39836;52.754;6.866;2022-10-16T06:00:04;12.70;80.50
53926;DHT22;39836;52.754;6.866;2022-10-16T06:02:30;12.70;80.50
53926;DHT22;39836;52.754;6.866;2022-10-16T06:04:56;12.60;80.40
53926;DHT22;39836;52.754;6.866;2022-10-16T06:07:22;12.70;80.40
53926;DHT22;39836;52.754;6.866;2022-10-16T06:09:52;12.70;80.40
53926;DHT22;39836;52.754;6.866;2022-10-16T06:12:18;12.70;80.40
53926;DHT22;39836;52.754;6.866;2022-10-16T06:14:45;12.70;80.40
53926;DHT22;39836;52.754;6.866;2022-10-16T06:17:13;12.70;80.40
53926;DHT22;39836;52.754;6.866;2022-10-16T06:19:39;12.70;80.40
53926;DHT22;39836;52.754;6.866;2022-10-16T06:22:05;12.70;80.40
53926;DHT22;39836;52.754;6.866;2022-10-16T06:24:30;12.70;80.40
53926;DHT22;39836;52.754;6.866;2022-10-16T06:26:56;12.70;80.40
53926;DHT22;39836;52.754;6.866;2022-10-16T06:29:22;12.80;80.40
53926;DHT22;39836;52.754;6.866;2022-10-16T06:31:47;12.80;80.30
53926;DHT22;39836;52.754;6.866;2022-10-16T06:34:13;12.80;80.30
53926;DHT22;39836;52.754;6.866;2022-10-16T06:36:39;12.80;80.30
53926;DHT22;39836;52.754;6.866;2022-10-16T06:39:05;12.80;80.20
53926;DHT22;39836;52.754;6.866;2022-10-16T06:41:33;12.90;80.30
53926;DHT22;39836;52.754;6.866;2022-10-16T06:43:58;12.90;80.20
53926;DHT22;39836;52.754;6.866;2022-10-16T06:46:25;12.90;80.20
53926;DHT22;39836;52.754;6.866;2022-10-16T06:48:52;12.80;80.10
53926;DHT22;39836;52.754;6.866;2022-10-16T06:51:19;12.90;80.20
53926;DHT22;39836;52.754;6.866;2022-10-16T06:53:47;12.90;80.20
53926;DHT22;39836;52.754;6.866;2022-10-16T06:58:44;13.00;80.20
53926;DHT22;39836;52.754;6.866;2022-10-16T07:01:11;12.90;80.20
53926;DHT22;39836;52.754;6.866;2022-10-16T07:03:39;12.90;80.20
53926;DHT22;39836;52.754;6.866;2022-10-16T07:06:06;12.90;80.20
53926;DHT22;39836;52.754;6.866;2022-10-16T07:08:36;13.00;80.20
53926;DHT22;39836;52.754;6.866;2022-10-16T07:11:05;13.00;80.20
53926;DHT22;39836;52.754;6.866;2022-10-16T07:13:33;13.10;80.20
53926;DHT22;39836;52.754;6.866;2022-10-16T07:16:04;13.10;80.20
53926;DHT22;39836;52.754;6.866;2022-10-16T07:18:30;13.20;80.20
53926;DHT22;39836;52.754;6.866;2022-10-16T07:21:04;13.20;80.20
53926;DHT22;39836;52.754;6.866;2022-10-16T07:23:30;13.20;80.10
53926;DHT22;39836;52.754;6.866;2022-10-16T07:25:55;13.30;80.10
53926;DHT22;39836;52.754;6.866;2022-10-16T07:28:21;13.30;80.10
53926;DHT22;39836;52.754;6.866;2022-10-16T07:30:47;13.30;80.00
53926;DHT22;39836;52.754;6.866;2022-10-16T07:33:13;13.30;80.00
53926;DHT22;39836;52.754;6.866;2022-10-16T07:35:56;13.40;80.00
53926;DHT22;39836;52.754;6.866;2022-10-16T07:38:22;13.40;80.00
53926;DHT22;39836;52.754;6.866;2022-10-16T07:40:48;13.40;80.00
53926;DHT22;39836;52.754;6.866;2022-10-16T07:43:14;13.40;80.00
53926;DHT22;39836;52.754;6.866;2022-10-16T07:45:49;13.50;80.00
53926;DHT22;39836;52.754;6.866;2022-10-16T07:48:16;13.60;80.00
53926;DHT22;39836;52.754;6.866;2022-10-16T07:50:43;13.70;79.90
53926;DHT22;39836;52.754;6.866;2022-10-16T07:53:09;13.70;79.80
53926;DHT22;39836;52.754;6.866;2022-10-16T07:55:35;13.70;79.80
53926;DHT22;39836;52.754;6.866;2022-10-16T07:58:01;13.70;79.80
53926;DHT22;39836;52.754;6.866;2022-10-16T08:00:27;13.70;79.80
53926;DHT22;39836;52.754;6.866;2022-10-16T08:02:52;13.70;79.80
53926;DHT22;39836;52.754;6.866;2022-10-16T08:05:18;13.70;79.70
53926;DHT22;39836;52.754;6.866;2022-10-16T08:07:49;13.70;79.70
53926;DHT22;39836;52.754;6.866;2022-10-16T08:10:17;13.80;79.60
53926;DHT22;39836;52.754;6.866;2022-10-16T08:12:43;13.80;79.40
53926;DHT22;39836;52.754;6.866;2022-10-16T08:15:09;13.80;79.40
53926;DHT22;39836;52.754;6.866;2022-10-16T08:17:35;13.90;79.50
53926;DHT22;39836;52.754;6.866;2022-10-16T08:20:00;13.90;79.60
53926;DHT22;39836;52.754;6.866;2022-10-16T08:22:27;14.00;79.60
53926;DHT22;39836;52.754;6.866;2022-10-16T08:24:53;14.00;79.50
53926;DHT22;39836;52.754;6.866;2022-10-16T08:27:18;14.10;79.60
53926;DHT22;39836;52.754;6.866;2022-10-16T08:29:44;14.10;79.60
53926;DHT22;39836;52.754;6.866;2022-10-16T08:32:10;14.10;79.50
53926;DHT22;39836;52.754;6.866;2022-10-16T08:34:35;14.10;79.60
53926;DHT22;39836;52.754;6.866;2022-10-16T08:37:01;14.20;79.50
53926;DHT22;39836;52.754;6.866;2022-10-16T08:39:27;14.20;79.50
53926;DHT22;39836;52.754;6.866;2022-10-16T08:42:19;14.40;79.60
53926;DHT22;39836;52.754;6.866;2022-10-16T08:45:21;14.40;79.50
53926;DHT22;39836;52.754;6.866;2022-10-16T08:47:58;14.50;79.20
53926;DHT22;39836;52.754;6.866;2022-10-16T08:50:28;14.60;79.30
53926;DHT22;39836;52.754;6.866;2022-10-16T08:52:55;14.70;79.60
53926;DHT22;39836;52.754;6.866;2022-10-16T08:55:38;14.80;79.30
53926;DHT22;39836;52.754;6.866;2022-10-16T08:58:14;14.90;79.30
53926;DHT22;39836;52.754;6.866;2022-10-16T09:00:43;14.90;79.10
53926;DHT22;39836;52.754;6.866;2022-10-16T09:06:25;14.90;78.90
53926;DHT22;39836;52.754;6.866;2022-10-16T09:15:11;15.10;79.00
53926;DHT22;39836;52.754;6.866;2022-10-16T09:17:45;15.20;78.60
53926;DHT22;39836;52.754;6.866;2022-10-16T09:22:42;15.40;78.40
53926;DHT22;39836;52.754;6.866;2022-10-16T09:25:18;15.50;78.50
53926;DHT22;39836;52.754;6.866;2022-10-16T09:27:47;15.70;78.20
53926;DHT22;39836;52.754;6.866;2022-10-16T09:30:19;15.80;78.00
53926;DHT22;39836;52.754;6.866;2022-10-16T09:32:48;15.90;77.80
53926;DHT22;39836;52.754;6.866;2022-10-16T09:35:20;16.00;77.90
53926;DHT22;39836;52.754;6.866;2022-10-16T09:37:51;16.00;77.50
53926;DHT22;39836;52.754;6.866;2022-10-16T09:43:01;16.20;77.80
53926;DHT22;39836;52.754;6.866;2022-10-16T09:45:27;16.30;77.80
53926;DHT22;39836;52.754;6.866;2022-10-16T09:47:53;16.40;77.50
53926;DHT22;39836;52.754;6.866;2022-10-16T09:50:25;16.40;77.20
53926;DHT22;39836;52.754;6.866;2022-10-16T09:53:08;16.40;77.20
53926;DHT22;39836;52.754;6.866;2022-10-16T09:55:36;16.50;77.10
53926;DHT22;39836;52.754;6.866;2022-10-16T09:58:01;16.50;76.80
53926;DHT22;39836;52.754;6.866;2022-10-16T10:00:27;16.60;76.80
53926;DHT22;39836;52.754;6.866;2022-10-16T10:02:54;16.70;77.00
53926;DHT22;39836;52.754;6.866;2022-10-16T10:05:25;16.80;76.90
53926;DHT22;39836;52.754;6.866;2022-10-16T10:08:02;16.80;76.90
53926;DHT22;39836;52.754;6.866;2022-10-16T10:10:34;16.80;76.50
53926;DHT22;39836;52.754;6.866;2022-10-16T10:13:02;16.90;76.60
53926;DHT22;39836;52.754;6.866;2022-10-16T10:15:33;16.90;76.60
53926;DHT22;39836;52.754;6.866;2022-10-16T10:18:00;17.00;76.50
53926;DHT22;39836;52.754;6.866;2022-10-16T10:20:30;17.00;76.00
53926;DHT22;39836;52.754;6.866;2022-10-16T10:22:58;17.00;75.90
53926;DHT22;39836;52.754;6.866;2022-10-16T10:28:39;17.10;75.60
53926;DHT22;39836;52.754;6.866;2022-10-16T10:36:46;17.10;75.90
53926;DHT22;39836;52.754;6.866;2022-10-16T10:39:49;17.20;76.20
53926;DHT22;39836;52.754;6.866;2022-10-16T10:50:52;17.30;75.60
53926;DHT22;39836;52.754;6.866;2022-10-16T10:53:37;17.10;75.40
53926;DHT22;39836;52.754;6.866;2022-10-16T10:59:11;17.20;75.90
53926;DHT22;39836;52.754;6.866;2022-10-16T11:10:24;17.80;75.60
53926;DHT22;39836;52.754;6.866;2022-10-16T11:12:58;17.70;75.50
53926;DHT22;39836;52.754;6.866;2022-10-16T11:15:35;17.90;75.50
53926;DHT22;39836;52.754;6.866;2022-10-16T11:18:08;18.10;75.20
53926;DHT22;39836;52.754;6.866;2022-10-16T11:20:42;18.20;75.30
53926;DHT22;39836;52.754;6.866;2022-10-16T11:23:48;18.30;75.10
53926;DHT22;39836;52.754;6.866;2022-10-16T11:26:21;18.30;74.30
53926;DHT22;39836;52.754;6.866;2022-10-16T11:28:51;18.30;74.60
53926;DHT22;39836;52.754;6.866;2022-10-16T11:31:41;18.20;74.50
53926;DHT22;39836;52.754;6.866;2022-10-16T11:34:39;18.10;73.80
53926;DHT22;39836;52.754;6.866;2022-10-16T11:37:14;17.90;73.00
53926;DHT22;39836;52.754;6.866;2022-10-16T11:39:44;17.80;72.90
53926;DHT22;39836;52.754;6.866;2022-10-16T11:42:21;17.50;73.50
53926;DHT22;39836;52.754;6.866;2022-10-16T11:45:28;17.30;73.00
53926;DHT22;39836;52.754;6.866;2022-10-16T11:50:45;17.00;74.00
53926;DHT22;39836;52.754;6.866;2022-10-16T11:53:59;16.80;73.50
53926;DHT22;39836;52.754;6.866;2022-10-16T11:56:17;16.90;73.10
53926;DHT22;39836;52.754;6.866;2022-10-16T11:58:59;17.00;73.00
53926;DHT22;39836;52.754;6.866;2022-10-16T12:01:38;17.10;73.50
53926;DHT22;39836;52.754;6.866;2022-10-16T12:06:44;17.80;73.70
53926;DHT22;39836;52.754;6.866;2022-10-16T12:09:26;18.10;73.70
53926;DHT22;39836;52.754;6.866;2022-10-16T12:11:52;18.40;73.50
53926;DHT22;39836;52.754;6.866;2022-10-16T12:16:57;19.00;72.40
53926;DHT22;39836;52.754;6.866;2022-10-16T12:19:25;19.10;71.60
53926;DHT22;39836;52.754;6.866;2022-10-16T12:21:55;19.10;71.50
53926;DHT22;39836;52.754;6.866;2022-10-16T12:24:37;19.30;71.30
53926;DHT22;39836;52.754;6.866;2022-10-16T12:27:06;19.40;71.40
53926;DHT22;39836;52.754;6.866;2022-10-16T12:32:00;19.80;70.60
53926;DHT22;39836;52.754;6.866;2022-10-16T12:34:29;20.00;70.30
53926;DHT22;39836;52.754;6.866;2022-10-16T12:37:10;20.20;70.20
53926;DHT22;39836;52.754;6.866;2022-10-16T12:39:37;20.30;70.40
53926;DHT22;39836;52.754;6.866;2022-10-16T12:42:21;20.50;70.20
53926;DHT22;39836;52.754;6.866;2022-10-16T12:44:47;20.70;69.80
53926;DHT22;39836;52.754;6.866;2022-10-16T12:49:57;20.90;69.20
53926;DHT22;39836;52.754;6.866;2022-10-16T12:52:36;21.10;69.10
53926;DHT22;39836;52.754;6.866;2022-10-16T12:55:03;21.10;68.70
53926;DHT22;39836;52.754;6.866;2022-10-16T13:00:41;21.30;68.80
53926;DHT22;39836;52.754;6.866;2022-10-16T13:14:24;22.00;67.30
53926;DHT22;39836;52.754;6.866;2022-10-16T13:19:53;22.30;67.30
53926;DHT22;39836;52.754;6.866;2022-10-16T13:22:26;22.50;66.90
53926;DHT22;39836;52.754;6.866;2022-10-16T13:25:03;22.40;66.80
53926;DHT22;39836;52.754;6.866;2022-10-16T13:30:16;22.50;66.80
53926;DHT22;39836;52.754;6.866;2022-10-16T13:32:46;22.60;66.70
53926;DHT22;39836;52.754;6.866;2022-10-16T13:35:33;22.70;66.40
53926;DHT22;39836;52.754;6.866;2022-10-16T13:38:15;22.90;66.10
53926;DHT22;39836;52.754;6.866;2022-10-16T13:43:20;22.90;66.30
53926;DHT22;39836;52.754;6.866;2022-10-16T13:45:54;23.10;66.00
53926;DHT22;39836;52.754;6.866;2022-10-16T13:48:20;23.40;65.70
53926;DHT22;39836;52.754;6.866;2022-10-16T13:50:45;23.70;65.60
53926;DHT22;39836;52.754;6.866;2022-10-16T13:53:14;23.60;65.20
53926;DHT22;39836;52.754;6.866;2022-10-16T13:55:40;23.40;64.90
53926;DHT22;39836;52.754;6.866;2022-10-16T13:58:12;23.20;64.90
53926;DHT22;39836;52.754;6.866;2022-10-16T14:00:39;23.10;64.90
53926;DHT22;39836;52.754;6.866;2022-10-16T14:03:11;23.00;65.30
53926;DHT22;39836;52.754;6.866;2022-10-16T14:05:47;22.80;65.40
53926;DHT22;39836;52.754;6.866;2022-10-16T14:08:14;22.40;65.80
53926;DHT22;39836;52.754;6.866;2022-10-16T14:10:40;22.20;65.60
53926;DHT22;39836;52.754;6.866;2022-10-16T14:13:07;22.10;65.90
53926;DHT22;39836;52.754;6.866;2022-10-16T14:15:35;21.70;66.20
53926;DHT22;39836;52.754;6.866;2022-10-16T14:18:01;21.60;66.10
53926;DHT22;39836;52.754;6.866;2022-10-16T14:20:30;21.60;66.30
53926;DHT22;39836;52.754;6.866;2022-10-16T14:23:19;21.70;66.50
53926;DHT22;39836;52.754;6.866;2022-10-16T14:25:45;21.60;66.30
53926;DHT22;39836;52.754;6.866;2022-10-16T14:28:17;21.40;66.70
53926;DHT22;39836;52.754;6.866;2022-10-16T14:30:54;21.60;67.00
53926;DHT22;39836;52.754;6.866;2022-10-16T14:36:11;21.60;66.70
53926;DHT22;39836;52.754;6.866;2022-10-16T14:38:39;21.20;66.90
53926;DHT22;39836;52.754;6.866;2022-10-16T14:41:05;20.70;67.00
53926;DHT22;39836;52.754;6.866;2022-10-16T14:43:40;20.20;67.40
53926;DHT22;39836;52.754;6.866;2022-10-16T14:46:18;19.80;67.90
53926;DHT22;39836;52.754;6.866;2022-10-16T14:48:50;19.60;68.40
53926;DHT22;39836;52.754;6.866;2022-10-16T14:51:18;19.30;68.60
53926;DHT22;39836;52.754;6.866;2022-10-16T14:53:44;19.10;68.90
53926;DHT22;39836;52.754;6.866;2022-10-16T14:56:22;19.00;69.30
53926;DHT22;39836;52.754;6.866;2022-10-16T14:58:50;18.90;69.40
53926;DHT22;39836;52.754;6.866;2022-10-16T15:01:16;18.80;69.70
53926;DHT22;39836;52.754;6.866;2022-10-16T15:03:42;18.70;69.60
53926;DHT22;39836;52.754;6.866;2022-10-16T15:06:12;18.60;69.80
53926;DHT22;39836;52.754;6.866;2022-10-16T15:08:38;18.40;70.20
53926;DHT22;39836;52.754;6.866;2022-10-16T15:11:05;18.30;70.60
53926;DHT22;39836;52.754;6.866;2022-10-16T15:13:31;18.30;70.80
53926;DHT22;39836;52.754;6.866;2022-10-16T15:15:56;18.10;71.00
53926;DHT22;39836;52.754;6.866;2022-10-16T15:18:23;18.00;71.30
53926;DHT22;39836;52.754;6.866;2022-10-16T15:20:50;18.00;71.60
53926;DHT22;39836;52.754;6.866;2022-10-16T15:23:18;17.90;71.80
53926;DHT22;39836;52.754;6.866;2022-10-16T15:25:46;17.90;71.90
53926;DHT22;39836;52.754;6.866;2022-10-16T15:28:13;17.70;72.10
53926;DHT22;39836;52.754;6.866;2022-10-16T15:30:40;17.70;72.30
53926;DHT22;39836;52.754;6.866;2022-10-16T15:33:14;17.60;72.20
53926;DHT22;39836;52.754;6.866;2022-10-16T15:35:40;17.50;72.30
53926;DHT22;39836;52.754;6.866;2022-10-16T15:38:06;17.50;72.50
53926;DHT22;39836;52.754;6.866;2022-10-16T15:40:32;17.40;72.60
53926;DHT22;39836;52.754;6.866;2022-10-16T15:42:57;17.30;72.70
53926;DHT22;39836;52.754;6.866;2022-10-16T15:45:23;17.30;72.80
53926;DHT22;39836;52.754;6.866;2022-10-16T15:47:49;17.20;72.90
53926;DHT22;39836;52.754;6.866;2022-10-16T15:50:15;17.20;72.90
53926;DHT22;39836;52.754;6.866;2022-10-16T15:52:41;17.20;72.90
53926;DHT22;39836;52.754;6.866;2022-10-16T15:55:12;17.20;73.00
53926;DHT22;39836;52.754;6.866;2022-10-16T15:57:39;17.10;73.30
53926;DHT22;39836;52.754;6.866;2022-10-16T16:00:15;17.10;73.40
53926;DHT22;39836;52.754;6.866;2022-10-16T16:02:42;17.10;73.60
53926;DHT22;39836;52.754;6.866;2022-10-16T16:05:10;17.00;73.80
53926;DHT22;39836;52.754;6.866;2022-10-16T16:07:37;16.90;73.70
53926;DHT22;39836;52.754;6.866;2022-10-16T16:10:06;16.90;73.70
53926;DHT22;39836;52.754;6.866;2022-10-16T16:12:33;16.80;73.80
53926;DHT22;39836;52.754;6.866;2022-10-16T16:14:59;16.70;73.90
53926;DHT22;39836;52.754;6.866;2022-10-16T16:17:24;16.70;74.00
53926;DHT22;39836;52.754;6.866;2022-10-16T16:19:51;16.40;74.20
53926;DHT22;39836;52.754;6.866;2022-10-16T16:22:16;16.30;74.50
53926;DHT22;39836;52.754;6.866;2022-10-16T16:24:42;16.20;74.70
53926;DHT22;39836;52.754;6.866;2022-10-16T16:27:08;16.00;74.70
53926;DHT22;39836;52.754;6.866;2022-10-16T16:29:33;15.90;74.80
53926;DHT22;39836;52.754;6.866;2022-10-16T16:32:00;15.80;75.00
53926;DHT22;39836;52.754;6.866;2022-10-16T16:34:27;15.80;75.10
53926;DHT22;39836;52.754;6.866;2022-10-16T16:36:54;15.70;75.20
53926;DHT22;39836;52.754;6.866;2022-10-16T16:39:20;15.60;75.20
53926;DHT22;39836;52.754;6.866;2022-10-16T16:41:46;15.50;75.30
53926;DHT22;39836;52.754;6.866;2022-10-16T16:44:12;15.50;75.40
53926;DHT22;39836;52.754;6.866;2022-10-16T16:46:39;15.50;75.50
53926;DHT22;39836;52.754;6.866;2022-10-16T16:49:06;15.50;75.60
53926;DHT22;39836;52.754;6.866;2022-10-16T16:51:32;15.40;75.70
53926;DHT22;39836;52.754;6.866;2022-10-16T16:53:58;15.40;75.70
53926;DHT22;39836;52.754;6.866;2022-10-16T16:56:25;15.40;75.70
53926;DHT22;39836;52.754;6.866;2022-10-16T16:58:53;15.40;75.80
53926;DHT22;39836;52.754;6.866;2022-10-16T17:01:19;15.30;75.80
53926;DHT22;39836;52.754;6.866;2022-10-16T17:03:46;15.20;76.00
53926;DHT22;39836;52.754;6.866;2022-10-16T17:06:15;15.20;76.10
53926;DHT22;39836;52.754;6.866;2022-10-16T17:08:41;15.10;76.20
53926;DHT22;39836;52.754;6.866;2022-10-16T17:11:12;15.10;76.20
53926;DHT22;39836;52.754;6.866;2022-10-16T17:13:38;15.00;76.30
53926;DHT22;39836;52.754;6.866;2022-10-16T17:16:05;15.00;76.30
53926;DHT22;39836;52.754;6.866;2022-10-16T17:18:31;14.90;76.30
53926;DHT22;39836;52.754;6.866;2022-10-16T17:21:06;14.80;76.40
53926;DHT22;39836;52.754;6.866;2022-10-16T17:23:33;14.80;76.50
53926;DHT22;39836;52.754;6.866;2022-10-16T17:26:17;14.80;76.60